Latest Coastal Weather Observations for Brisbane Airport

IDQ60701

Issued at 9:01 pm EST Saturday 28 March 2015 (issued every 10 minutes, with the page automatically refreshed every 10 minutes)

About coastal observations | Map of coastal stations | Coastal observations for QLD | Marine services | Other Formats
Station Details ID: 040842 Name: BRISBANE AERO Lat: -27.39 Lon: 153.13 Height: 4.51 m
Data from the previous 72 hours. | See also: Recent months at Brisbane Airport
Date/Time
EST
Temp

°C
Wind Pressure Rain
since 9am
mm
Weather Cloud Vis
km
Sea
Height
m
Swell
Dir
 
Speed
knots
Gust
knots
hPa Trend Height
m
Period
s
Dir
28/08:30pm 24.2 E 7 10 1021.4 - 0.0 - Partly cloudy 10 - - - -
28/08:00pm 24.3 E 7 10 1021.1 - 0.0 - Cloudy 10 - - - -
28/07:30pm 24.4 E 7 11 1020.7 - 0.0 - Cloudy 10 - - - -
28/07:00pm 24.4 E 6 10 1020.4 - 0.0 - Mostly clear 10 - - - -
28/06:30pm 24.3 E 7 11 1019.9 - 0.0 - Mostly clear 10 - - - -
28/06:00pm 24.4 E 7 9 1019.5 F 0.0 Fine Mostly clear 30 - - - -
28/05:30pm 24.7 E 8 14 1019.3 - 0.0 - Mostly clear 10 - - - -
28/05:00pm 25.0 E 8 15 1019.3 - 0.0 - Mostly clear 10 - - - -
28/04:30pm 25.6 E 8 12 1019.0 - 0.0 - Mostly clear 10 - - - -
28/04:00pm 26.5 E 8 14 1018.7 - 0.0 - Mostly clear 10 - - - -
28/03:30pm 26.6 ENE 9 14 1018.7 - 0.0 - Mostly clear 10 - - - -
28/03:00pm 26.2 ENE 10 16 1018.9 R 0.0 Fine Partly cloudy 20 - - - -
28/02:30pm 26.5 E 7 13 1019.0 - 0.0 - Mostly clear 10 - - - -
28/02:00pm 26.4 ESE 9 14 1019.2 - 0.0 - Mostly clear 10 - - - -
28/01:30pm 26.1 E 8 12 1019.4 - 0.0 - Mostly clear 10 - - - -
28/01:00pm 27.1 ESE 7 13 1019.5 - 0.0 - Mostly clear 10 - - - -
28/12:30pm 26.9 SE 9 14 1019.8 - 0.0 - Mostly clear 10 - - - -
28/12:00pm 25.6 ESE 7 12 1020.3 R 0.0 Distant precip. Mostly cloudy 20 - - - -
28/11:30am 25.5 ESE 8 12 1020.5 - 0.0 Showers Mostly clear 10 - - - -
28/11:00am 25.5 ESE 9 15 1020.9 - 0.0 Showers Mostly clear 10 - - - -
28/10:30am 25.4 SE 7 14 1021.2 - 0.0 Showers Mostly clear 10 - - - -
28/10:00am 25.2 SE 8 14 1021.0 - 0.0 Showers Mostly clear 10 - - - -
28/09:30am 25.8 SE 8 11 1020.8 - 0.0 - Mostly clear 10 - - - -
28/09:00am 25.3 SE 7 11 1020.7 R 0.0 Distant precip. Mostly cloudy 20 - - - -
28/08:30am 25.7 SSE 7 12 1020.6 - 0.0 - Mostly clear 10 - - - -
28/08:00am 24.5 SSE 5 7 1020.4 - 0.0 - Mostly clear 10 - - - -
28/07:30am 24.2 S 7 9 1019.9 - 0.0 - Mostly clear 10 - - - -
28/07:00am 23.2 S 5 8 1019.3 - 0.0 - Mostly clear 10 - - - -
28/06:30am 22.8 S 5 7 1019.1 - 0.0 - Mostly clear 10 - - - -
28/06:00am 23.0 S 5 7 1018.8 R 0.0 Haze Mostly cloudy 18 - - - -
28/05:30am 23.1 S 5 7 1018.6 - 0.0 - Partly cloudy 10 - - - -
28/05:00am 23.0 S 5 7 1018.4 - 0.0 - Mostly clear 10 - - - -
28/04:30am 23.1 SSE 5 8 1018.0 - 0.0 - Mostly clear 10 - - - -
28/04:00am 23.1 S 5 8 1017.9 - 0.0 - Mostly clear 10 - - - -
28/03:30am 23.0 S 5 7 1017.7 - 0.0 - Mostly cloudy 10 - - - -
28/03:00am 22.9 S 4 6 1017.6 R 0.0 Haze Mostly cloudy 18 - - - -
28/02:30am 23.0 S 4 6 1017.8 - 0.0 - Partly cloudy 10 - - - -
28/02:00am 23.1 SSE 4 6 1017.7 - 0.0 - Mostly clear 10 - - - -
28/01:30am 23.2 SSE 4 7 1017.9 - 0.0 - Partly cloudy 10 - - - -
28/01:00am 23.3 SSW 5 6 1018.1 - 0.0 - Partly cloudy 10 - - - -
28/12:30am 24.2 ESE 5 8 1018.2 - 0.0 - Partly cloudy 10 - - - -
 
Date/Time
EST
Temp

°C
Wind Pressure Rain
since 9am
mm
Weather Cloud Vis
km
Sea
Height
m
Swell
Dir
 
Speed
knots
Gust
knots
hPa Trend Height
m
Period
s
Dir
27/11:30pm 25.1 E 6 10 1018.5 - 0.0 - Partly cloudy 10 - - - -
27/11:00pm 25.0 ESE 5 8 1018.7 - 0.0 - Mostly clear 10 - - - -
27/10:30pm 25.0 ESE 6 8 1019.0 - 0.0 - Mostly clear 10 - - - -
27/10:00pm 25.2 E 5 9 1019.0 - 0.0 - Mostly clear 10 - - - -
27/09:30pm 25.2 E 6 9 1019.0 - 0.0 - Mostly clear 10 - - - -
27/09:00pm 25.3 E 7 11 1019.0 R 0.0 Haze Mostly cloudy 20 - - - -
27/08:30pm 25.3 E 7 9 1018.9 - 0.0 - Mostly clear 10 - - - -
27/08:00pm 25.2 ESE 5 9 1018.7 - 0.0 - Partly cloudy 10 - - - -
27/07:30pm 25.1 SE 7 11 1018.4 - 0.0 - Partly cloudy 10 - - - -
27/07:00pm 25.1 SE 8 12 1018.1 - 0.0 - Mostly clear 10 - - - -
27/06:30pm 25.2 ESE 10 16 1017.5 - 0.0 - Mostly clear 10 - - - -
27/06:00pm 25.4 ESE 11 18 1017.2 R 0.0 Haze Mostly clear 20 - - - -
27/05:30pm 25.7 ESE 10 16 1017.0 - 0.0 - Mostly clear 10 - - - -
27/05:00pm 26.1 ESE 11 19 1016.7 - 0.0 - Mostly clear 10 - - - -
27/04:30pm 26.5 ESE 11 17 1016.4 - 0.0 - Mostly clear 10 - - - -
27/04:00pm 27.1 ESE 10 18 1016.2 - 0.0 - Mostly clear 10 - - - -
27/03:30pm 27.3 ESE 10 18 1016.1 - 0.0 - Mostly clear 10 - - - -
27/03:00pm 27.8 ESE 10 15 1016.0 R 0.0 Haze Partly cloudy 25 - - - -
27/02:30pm 27.7 ESE 9 15 1016.0 - 0.0 - Mostly clear 10 - - - -
27/02:00pm 28.0 ESE 11 18 1016.2 - 0.0 - Mostly clear 10 - - - -
27/01:30pm 27.6 ESE 10 19 1016.6 - 0.0 - Mostly clear 10 - - - -
27/01:00pm 27.4 ESE 11 17 1016.8 - 0.0 - Mostly clear 10 - - - -
27/12:30pm 28.3 ESE 10 16 1017.2 - 0.0 - Mostly clear 10 - - - -
27/12:00pm 29.7 SSW 6 10 1017.4 F 0.0 Distant precip. Partly cloudy 30 - - - -
27/11:30am 29.4 SSE 6 9 1017.8 - 0.0 - Mostly clear 10 - - - -
27/11:00am 28.6 S 6 9 1018.2 - 0.0 - Mostly clear 10 - - - -
27/10:30am 27.8 WSW 7 12 1018.4 - 0.0 - Mostly clear 10 - - - -
27/10:00am 27.8 W 7 9 1018.6 - 0.0 - Partly cloudy 10 - - - -
27/09:30am 27.1 SSW 5 8 1018.7 - 0.0 - Mostly clear 10 - - - -
27/09:00am 26.9 S 5 8 1018.6 R 0.2 Fine Mostly cloudy 30 - - - -
27/08:30am 26.7 W 5 7 1018.6 - 0.2 - Mostly clear 10 - - - -
27/08:00am 25.7 WNW 5 7 1018.4 - 0.2 - Mostly clear 10 - - - -
27/07:30am 24.4 WNW 5 7 1018.1 - 0.2 - Mostly clear 10 - - - -
27/07:00am 24.1 W 5 7 1017.7 - 0.2 - Mostly clear 10 - - - -
27/06:30am 24.0 NW 5 9 1017.4 - 0.2 - Mostly clear 10 - - - -
27/06:00am 23.6 NNW 6 9 1017.0 F 0.2 Fine Mostly cloudy 18 - - - -
27/05:30am 23.0 N 7 8 1016.7 - 0.2 - Mostly clear 10 - - - -
27/05:00am 22.7 NW 4 6 1016.6 - 0.2 - Mostly clear 10 - - - -
27/04:30am 22.9 CALM 0 2 1016.2 - 0.2 - Mostly clear 10 - - - -
27/04:00am 23.0 SSW 5 5 1016.3 - 0.2 - Mostly clear 10 - - - -
27/03:30am 23.0 W 4 5 1016.1 - 0.2 - Mostly clear 10 - - - -
27/03:00am 23.8 WSW 5 6 1016.2 S 0.2 Fine Partly cloudy 25 - - - -
27/02:30am 24.0 NW 4 5 1016.2 - 0.2 - Mostly clear 10 - - - -
27/02:00am 24.6 N 7 8 1016.4 - 0.2 - Mostly clear 10 - - - -
27/01:30am 24.8 N 8 11 1016.7 - 0.2 - Mostly clear 10 - - - -
27/01:00am 25.1 NNW 6 8 1017.0 - 0.2 - Mostly clear 10 - - - -
27/12:30am 25.3 N 6 7 1017.1 - 0.2 - Mostly clear 10 - - - -
27/12:00am 25.1 NNW 7 8 1017.3 S 0.2 Fine Mostly cloudy 20 - - - -
 
Date/Time
EST
Temp

°C
Wind Pressure Rain
since 9am
mm
Weather Cloud Vis
km
Sea
Height
m
Swell
Dir
 
Speed
knots
Gust
knots
hPa Trend Height
m
Period
s
Dir
26/11:30pm 25.3 NNW 6 8 1017.5 - 0.2 - Mostly clear 10 - - - -
26/11:00pm 25.2 NW 5 6 1017.6 - 0.2 - Mostly clear 10 - - - -
26/10:30pm 25.3 WSW 1 4 1017.7 - 0.2 - Mostly clear 10 - - - -
26/10:00pm 25.5 NNW 6 7 1017.8 - 0.2 - Mostly clear 10 - - - -
26/09:30pm 25.4 N 9 12 1017.6 - 0.2 - Mostly clear 10 - - - -
26/09:00pm 25.9 N 9 12 1018.0 F 0.2 Showers Partly cloudy 18 - - - -
26/08:30pm 26.1 N 12 17 1017.4 - 0.2 Showers Mostly clear 10 - - - -
26/08:00pm 26.1 N 9 12 1017.6 - 0.2 Showers Mostly clear 10 - - - -
26/07:30pm 26.0 N 14 18 1016.6 - 0.2 - Mostly clear 10 - - - -
26/07:00pm 26.1 N 14 18 1016.6 - 0.2 - Mostly clear 10 - - - -
26/06:30pm 26.1 N 12 17 1016.5 - 0.2 - Mostly clear 10 - - - -
26/06:00pm 26.3 N 13 17 1016.6 R 0.2 Distant precip. Mostly cloudy 25 - - - -
26/05:30pm 26.2 N 14 17 1015.7 - 0.2 - Mostly clear 10 - - - -
26/05:00pm 26.3 NNE 14 18 1014.9 - 0.2 - Mostly clear 10 - - - -
26/04:30pm 26.6 NNE 14 19 1014.8 - 0.2 - Mostly clear 10 - - - -
26/04:00pm 27.5 NNE 17 20 1014.6 - 0.2 - Mostly clear 10 - - - -
26/03:30pm 27.7 NNE 16 19 1014.9 - 0.2 - Mostly clear 10 - - - -
26/03:00pm 28.0 NNE 17 21 1015.0 F 0.2 Fine Partly cloudy 30 - - - -
26/02:30pm 28.4 NNE 16 21 1015.2 - 0.2 - Mostly clear 10 - - - -
26/02:00pm 28.5 NNE 16 19 1015.5 - 0.2 - Mostly clear 10 - - - -
26/01:30pm 28.3 NNE 16 20 1015.9 - 0.2 - Mostly clear 10 - - - -
26/01:00pm 28.7 NNE 15 19 1016.4 - 0.2 - Mostly clear 10 - - - -
26/12:30pm 28.8 NNE 15 19 1016.8 - 0.2 - Mostly clear 10 - - - -
26/12:00pm 28.4 NNE 15 18 1017.2 R 0.2 Fine Partly cloudy 30 - - - -
26/11:30am 28.2 NNE 13 16 1017.5 - 0.2 - Mostly clear 10 - - - -
26/11:00am 28.5 N 13 16 1017.9 - 0.2 - Mostly clear 10 - - - -
26/10:30am 28.3 N 12 15 1018.2 - 0.2 - Mostly clear 10 - - - -
26/10:00am 27.8 N 11 12 1018.3 - 0.2 - Mostly clear 10 - - - -
26/09:30am 26.9 N 11 14 1018.4 - 0.0 - Mostly clear 10 - - - -
26/09:00am 27.4 N 11 15 1018.0 S 7.0 Distant precip. Mostly cloudy 30 - - - -
26/08:30am 26.2 N 9 12 1018.1 - 7.0 - Mostly clear 10 - - - -
26/08:00am 25.5 NNW 8 10 1018.2 - 7.0 - Mostly clear 10 - - - -
26/07:30am 25.5 N 9 12 1017.6 - 7.0 - Mostly clear 10 - - - -
26/07:00am 25.9 N 11 15 1017.3 - 7.0 - Mostly clear 10 - - - -
26/06:30am 25.2 N 9 12 1016.9 - 7.0 - Mostly clear 10 - - - -
26/06:00am 25.0 N 7 10 1017.0 R 7.0 Fine Mostly cloudy 30 - - - -
26/05:30am 25.0 N 9 13 1016.5 - 7.0 - Mostly clear 10 - - - -
26/05:00am 24.9 N 9 12 1016.2 - 7.0 - Mostly clear 10 - - - -
26/04:30am 25.1 N 10 15 1015.8 - 7.0 - Mostly clear 10 - - - -
26/04:00am 25.2 N 12 15 1015.6 - 7.0 - Mostly clear 10 - - - -
26/03:30am 25.2 NNE 11 16 1015.3 - 7.0 - Mostly clear 10 - - - -
26/03:00am 25.1 NNE 8 10 1015.3 R 7.0 Fine Mostly cloudy 30 - - - -
26/02:30am 25.2 ENE 6 9 1015.5 - 7.0 - Mostly clear 10 - - - -
26/02:00am 25.2 E 5 7 1015.7 - 7.0 - Mostly clear 10 - - - -
26/01:30am 25.1 E 5 7 1015.8 - 7.0 - Mostly clear 10 - - - -
26/01:00am 25.1 E 5 9 1015.9 - 7.0 - Partly cloudy 10 - - - -
26/12:47am 25.0 ESE 6 8 1015.9 - 7.0 - Partly cloudy 10 - - - -
26/12:30am 24.8 ESE 6 8 1016.2 - 7.0 - Partly cloudy 10 - - - -
26/12:00am 24.5 SE 5 7 1016.2 R 7.0 Drizzle Cloudy 30 - - - -
 
Date/Time
EST
Temp

°C
Wind Pressure Rain
since 9am
mm
Weather Cloud Vis
km
Sea
Height
m
Swell
Dir
 
Speed
knots
Gust
knots
hPa Trend Height
m
Period
s
Dir
25/11:30pm 24.1 SSE 5 7 1016.2 - 7.0 - Partly cloudy 10 - - - -
25/11:00pm 23.7 SSE 5 6 1016.3 - 7.0 Showers Mostly clear 9 - - - -
25/10:30pm 23.6 SE 5 6 1016.6 - 6.0 Showers Mostly clear 10 - - - -
25/10:11pm 23.8 SE 7 10 1016.7 - 4.6 Thunderstorm Mostly clear 7 - - - -
25/10:00pm 23.9 SSE 6 8 1017.0 - 2.4 Thunderstorm Mostly cloudy 9 - - - -
25/09:51pm 24.3 ENE 2 5 1016.8 - 1.2 Thunderstorm Partly cloudy 8 - - - -
25/09:30pm 26.2 N 6 10 1016.6 - 0.0 Thunder Partly cloudy 10 - - - -
25/09:29pm 26.2 N 6 10 1016.6 - 0.0 Thunder Partly cloudy 10 - - - -

Other Formats:

Comma delimited format used in spreadsheet applications
http://www.bom.gov.au/fwo/IDQ60701/IDQ60701.94578.axf

JavaScript Object Notation format (JSON) in row-major order
http://www.bom.gov.au/fwo/IDQ60701/IDQ60701.94578.json